Data for 12/23/2017

Time Sea-Level Adjusted Pressure Absolute Pressure Temperature Relative Humidity Dew Point   
(mb) (inHg) (mb) (inHg) (C) (F) (%) (C) (F)
00:05 1019 30.09 848 25.04 -13.7 7.4 74 -17.4 0.7
00:10 1019 30.09 848 25.04 -13.8 7.3 75 -17.2 1
00:15 1019 30.09 848 25.04 -13.8 7.2 77 -17 1.4
00:20 1019 30.09 848 25.04 -13.9 7.1 78 -16.9 1.6
00:25 1019 30.09 848 25.04 -13.9 6.9 79 -16.8 1.7
00:30 1019 30.09 848 25.04 -14 6.9 80 -16.7 2
00:35 1019 30.09 848 25.04 -14 6.9 81 -16.6 2.1
00:40 1019 30.09 848 25.04 -14 6.8 81 -16.6 2.2
00:45 1019 30.09 848 25.04 -14.1 6.7 82 -16.5 2.2
00:50 1019 30.09 848 25.04 -14.1 6.6 82 -16.6 2.1
00:55 1019 30.09 848 25.04 -14.1 6.6 81 -16.6 2
01:00 1019 30.09 848 25.04 -14.1 6.6 81 -16.8 1.8
01:05 1019 30.09 848 25.04 -14.2 6.5 80 -16.9 1.6
01:10 1019 30.09 848 25.04 -14.2 6.4 79 -17.1 1.2
01:15 1019 30.09 848 25.04 -14.3 6.3 79 -17.2 1
01:20 1019 30.09 848 25.04 -14.2 6.4 78 -17.2 1
01:25 1019 30.09 848 25.04 -14.2 6.5 78 -17.3 0.9
01:30 1019 30.09 848 25.04 -14.2 6.5 77 -17.4 0.8
01:35 1019 30.09 848 25.04 -14.1 6.6 76 -17.4 0.6
01:40 1019 30.09 848 25.04 -14.2 6.5 77 -17.4 0.7
01:45 1019 30.09 848 25.04 -14.1 6.6 76 -17.5 0.5
01:50 1018 30.06 848 25.04 -14.2 6.5 76 -17.6 0.4
01:55 1019 30.09 848 25.04 -14.2 6.5 75 -17.6 0.3
02:00 1019 30.09 848 25.04 -14.1 6.6 77 -17.3 0.9
02:05 1019 30.09 848 25.04 -14.1 6.6 79 -17 1.3
02:10 1019 30.09 848 25.04 -14.1 6.6 80 -16.9 1.6
02:15 1019 30.09 848 25.04 -14.1 6.6 81 -16.7 2
02:20 1019 30.09 848 25.04 -14 6.7 82 -16.5 2.3
02:25 1019 30.09 848 25.04 -14 6.8 83 -16.3 2.7
02:30 1019 30.09 848 25.04 -13.9 7 84 -16 3.2
02:35 1019 30.09 849 25.07 -13.7 7.3 83 -16 3.3
02:40 1019 30.09 849 25.07 -13.9 7 85 -16 3.3
02:45 1020 30.12 849 25.07 -13.9 6.9 85 -15.9 3.4
02:50 1020 30.12 849 25.07 -13.8 7.1 85 -15.9 3.4
02:55 1019 30.09 849 25.07 -13.9 6.9 84 -16.1 3
03:00 1019 30.09 849 25.07 -14.2 6.5 84 -16.3 2.6
03:05 1019 30.09 849 25.07 -14.2 6.4 84 -16.3 2.6
03:10 1019 30.09 848 25.04 -14.3 6.2 84 -16.4 2.4
03:15 1019 30.09 848 25.04 -14.3 6.3 84 -16.4 2.4
03:20 1019 30.09 848 25.04 -14.4 6.1 83 -16.6 2.1
03:25 1019 30.09 848 25.04 -14.5 5.8 84 -16.7 2
03:30 1019 30.09 848 25.04 -14.6 5.7 84 -16.7 1.9
03:35 1019 30.09 848 25.04 -14.6 5.7 84 -16.7 1.9
03:40 1019 30.09 848 25.04 -14.7 5.5 84 -16.8 1.7
03:45 1019 30.09 848 25.04 -14.8 5.3 84 -16.9 1.5
03:50 1019 30.09 848 25.04 -14.9 5.1 85 -16.9 1.5
03:55 1019 30.09 848 25.04 -14.8 5.3 85 -16.9 1.6
04:00 1019 30.09 848 25.04 -15 5.1 85 -17 1.4
04:05 1019 30.09 848 25.04 -14.9 5.2 85 -16.9 1.5
04:10 1019 30.09 848 25.04 -14.8 5.3 84 -17 1.5
04:15 1019 30.09 848 25.04 -14.6 5.7 83 -16.9 1.6
04:20 1019 30.09 848 25.04 -14.8 5.3 84 -16.9 1.5
04:25 1019 30.09 848 25.04 -14.8 5.4 85 -16.8 1.7
04:30 1019 30.09 848 25.04 -14.7 5.6 83 -16.9 1.5
04:35 1019 30.09 848 25.04 -14.9 5.2 84 -17.1 1.3
04:40 1019 30.09 848 25.04 -14.9 5.3 83 -17.1 1.3
04:45 1019 30.09 848 25.04 -14.8 5.4 84 -16.8 1.7
04:50 1019 30.09 848 25.04 -14.6 5.8 84 -16.7 1.9
04:55 1019 30.09 848 25.04 -14.6 5.7 83 -16.9 1.7
05:00 1019 30.09 848 25.04 -14.7 5.6 84 -16.9 1.7
05:05 1019 30.09 848 25.04 -14.5 5.9 84 -16.7 2
05:10 1019 30.09 848 25.04 -14.4 6.1 83 -16.6 2.1
05:15 1019 30.09 848 25.04 -14.4 6 83 -16.8 1.8
05:20 1019 30.09 848 25.04 -14.6 5.8 83 -16.8 1.8
05:25 1019 30.09 848 25.04 -14.5 6 83 -16.7 1.9
05:30 1019 30.09 848 25.04 -14.4 6.1 83 -16.7 1.9
05:35 1019 30.09 848 25.04 -14.4 6.2 83 -16.7 2
05:40 1019 30.09 849 25.07 -14.3 6.4 82 -16.6 2.1
05:45 1020 30.12 849 25.07 -14.2 6.5 82 -16.6 2.2
05:50 1019 30.09 849 25.07 -14.1 6.5 82 -16.6 2.1
05:55 1020 30.12 849 25.07 -14.3 6.4 83 -16.5 2.2
06:00 1020 30.12 849 25.07 -14.1 6.6 83 -16.5 2.3
06:05 1020 30.12 849 25.07 -14.1 6.7 82 -16.5 2.2
06:10 1020 30.12 849 25.07 -14.1 6.7 82 -16.5 2.3
06:15 1020 30.12 849 25.07 -14.1 6.7 83 -16.4 2.5
06:20 1020 30.12 849 25.07 -14.2 6.5 83 -16.5 2.3
06:25 1020 30.12 849 25.07 -14.2 6.5 81 -16.7 1.9
06:30 1020 30.12 849 25.07 -14.3 6.3 83 -16.6 2.1
06:35 1020 30.12 849 25.07 -14.2 6.5 82 -16.7 2
06:40 1020 30.12 849 25.07 -14.3 6.3 82 -16.8 1.8
06:45 1020 30.12 849 25.07 -14.3 6.3 82 -16.7 2
06:50 1020 30.12 849 25.07 -14.2 6.4 82 -16.7 2
06:55 1020 30.12 849 25.07 -14.2 6.4 81 -16.8 1.8
07:00 1020 30.12 849 25.07 -14.3 6.3 82 -16.8 1.8
07:05 1020 30.12 849 25.07 -14.3 6.3 82 -16.7 2
07:10 1020 30.12 849 25.07 -14.2 6.4 82 -16.6 2.1
07:15 1020 30.12 849 25.07 -14.2 6.5 82 -16.6 2.1
07:20 1020 30.12 849 25.07 -14.2 6.4 82 -16.6 2.1
07:25 1020 30.12 849 25.07 -14.3 6.3 82 -16.7 1.9
07:30 1020 30.12 849 25.07 -14.3 6.2 82 -16.7 1.9
07:35 1020 30.12 849 25.07 -14.4 6 82 -16.8 1.7
07:40 1020 30.12 849 25.07 -14.5 5.9 83 -16.8 1.8
07:45 1020 30.12 849 25.07 -14.5 6 83 -16.7 1.9
07:50 1020 30.12 849 25.07 -14.3 6.2 82 -16.8 1.7
07:55 1020 30.12 849 25.07 -14.4 6.2 83 -16.7 1.9
08:00 1020 30.12 849 25.07 -14.3 6.3 82 -16.7 2
08:05 1020 30.12 849 25.07 -14.3 6.2 82 -16.7 1.9
08:10 1020 30.12 849 25.07 -14.3 6.2 82 -16.7 1.9
08:15 1020 30.12 849 25.07 -14.4 6.2 82 -16.8 1.8
08:20 1020 30.12 849 25.07 -14.4 6.1 82 -16.8 1.7
08:25 1020 30.12 849 25.07 -14.4 6.1 81 -16.9 1.6
08:30 1020 30.12 849 25.07 -14.5 5.9 81 -17 1.4
08:35 1020 30.12 849 25.07 -14.5 5.9 81 -17.1 1.3
08:40 1020 30.12 849 25.07 -14.5 6 81 -17 1.4
08:45 1020 30.12 849 25.07 -14.4 6.1 81 -16.9 1.5
08:50 1020 30.12 850 25.1 -14.3 6.2 81 -16.9 1.6
08:55 1020 30.12 850 25.1 -14.2 6.4 81 -16.8 1.7
09:00 1020 30.12 850 25.1 -14.2 6.4 80 -16.9 1.5
09:05 1020 30.12 850 25.1 -14.2 6.4 80 -16.9 1.5
09:10 1020 30.12 850 25.1 -14.2 6.5 80 -16.9 1.6
09:15 1021 30.15 850 25.1 -14.1 6.6 79 -16.9 1.5
09:20 1021 30.15 850 25.1 -14 6.7 80 -16.8 1.7
09:25 1021 30.15 850 25.1 -13.9 6.9 79 -16.8 1.7
09:30 1021 30.15 850 25.1 -13.9 6.9 79 -16.9 1.6
09:35 1021 30.15 850 25.1 -14 6.9 78 -17 1.3
09:40 1021 30.15 850 25.1 -14.1 6.6 78 -17.1 1.2
09:45 1021 30.15 850 25.1 -14.1 6.7 78 -17.1 1.2
09:50 1021 30.15 850 25.1 -14 6.8 78 -17.1 1.3
09:55 1021 30.15 850 25.1 -14 6.9 77 -17.1 1.2
10:00 1021 30.15 850 25.1 -13.8 7.1 76 -17.2 1.1
10:05 1021 30.15 850 25.1 -13.7 7.3 76 -17.1 1.3
10:10 1021 30.15 850 25.1 -13.4 7.9 75 -16.9 1.5
10:15 1021 30.15 851 25.13 -13.4 7.8 74 -17.1 1.2
10:20 1021 30.15 851 25.13 -13.4 7.9 75 -16.9 1.5
10:25 1021 30.15 851 25.13 -13.3 8.1 75 -16.8 1.7
10:30 1022 30.18 851 25.13 -13.2 8.3 73 -17 1.4
10:35 1022 30.18 851 25.13 -13.5 7.7 75 -17.1 1.2
10:40 1022 30.18 851 25.13 -13.8 7.2 75 -17.3 0.9
10:45 1022 30.18 851 25.13 -13.6 7.5 75 -17.1 1.2
10:50 1022 30.18 851 25.13 -13.3 8.1 74 -17 1.4
10:55 1022 30.18 851 25.13 -13.1 8.3 73 -17 1.4
11:00 1022 30.18 851 25.13 -13.5 7.7 73 -17.3 0.8
11:05 1022 30.18 851 25.13 -13.8 7.2 75 -17.4 0.7
11:10 1022 30.18 851 25.13 -13.5 7.8 72 -17.4 0.6
11:15 1022 30.18 851 25.13 -13.7 7.3 74 -17.5 0.5
11:20 1022 30.18 851 25.13 -13.8 7.3 74 -17.4 0.6
11:25 1022 30.18 851 25.13 -13.6 7.4 73 -17.6 0.4
11:30 1022 30.18 851 25.13 -14 6.9 74 -17.7 0.1
11:35 1022 30.18 851 25.13 -14 6.8 74 -17.7 0.1
11:40 1022 30.18 851 25.13 -14.1 6.7 74 -17.7 0.1
11:45 1022 30.18 851 25.13 -14.2 6.5 75 -17.7 0.1
11:50 1022 30.18 851 25.13 -14.3 6.3 74 -18 -0.3
11:55 1022 30.18 851 25.13 -14.3 6.3 74 -17.9 -0.3
12:00 1022 30.18 851 25.13 -14.1 6.6 75 -17.6 0.4
12:05 1022 30.18 851 25.13 -13.8 7.1 75 -17.4 0.6
12:10 1022 30.18 851 25.13 -13.9 7 73 -17.7 0.1
12:15 1022 30.18 851 25.13 -13.9 7.1 74 -17.6 0.3
12:20 1022 30.18 851 25.13 -14 6.9 75 -17.5 0.4
12:25 1022 30.18 851 25.13 -13.4 7.9 73 -17.2 1
12:30 1022 30.18 851 25.13 -13.4 7.8 73 -17.2 1
12:35 1022 30.18 851 25.13 -13.3 8 70 -17.6 0.3
12:40 1022 30.18 851 25.13 -13 8.5 72 -17.1 1.2
12:45 1022 30.18 851 25.13 -12 10.3 64 -17.5 0.5
12:50 1022 30.18 851 25.13 -12.4 9.7 68 -17.1 1.2
12:55 1022 30.18 851 25.13 -12.7 9.2 69 -17.3 0.9
13:00 1022 30.18 851 25.13 -13.5 7.7 71 -17.7 0.2
13:05 1022 30.18 851 25.13 -13.3 8 70 -17.7 0.2
13:10 1022 30.18 851 25.13 -13.2 8.3 70 -17.5 0.4
13:15 1022 30.18 851 25.13 -13.1 8.4 68 -17.7 0.1
13:20 1022 30.18 851 25.13 -13.8 7.2 71 -18 -0.4
13:25 1022 30.18 851 25.13 -13.6 7.6 70 -17.9 -0.2
13:30 1022 30.18 851 25.13 -12.8 9 67 -17.6 0.3
13:35 1022 30.18 851 25.13 -12.2 10 65 -17.6 0.4
13:40 1022 30.18 851 25.13 -12.2 10 65 -17.5 0.5
13:45 1022 30.18 852 25.16 -12.4 9.8 65 -17.6 0.4
13:50 1022 30.18 852 25.16 -11.7 11 62 -17.6 0.3
13:55 1023 30.21 852 25.16 -11.6 11.1 62 -17.6 0.4
14:00 1023 30.21 852 25.16 -11.1 12.1 60 -17.4 0.6
14:05 1023 30.21 852 25.16 -11.5 11.4 62 -17.4 0.7
14:10 1023 30.21 852 25.16 -12.2 10.1 63 -17.8 -0
14:15 1023 30.21 852 25.16 -12 10.5 64 -17.4 0.6
14:20 1023 30.21 852 25.16 -11.2 11.9 61 -17.4 0.7
14:25 1023 30.21 852 25.16 -11.1 12.1 61 -17.2 1
14:30 1023 30.21 852 25.16 -11.1 12 61 -17.3 0.9
14:35 1023 30.21 852 25.16 -10.9 12.3 59 -17.5 0.5
14:40 1023 30.21 852 25.16 -10.9 12.5 60 -17.3 0.9
14:45 1023 30.21 852 25.16 -10.9 12.4 59 -17.5 0.6
14:50 1023 30.21 852 25.16 -10.9 12.4 58 -17.6 0.3
14:55 1023 30.21 852 25.16 -11.2 11.8 59 -17.7 0.2
15:00 1023 30.21 852 25.16 -11.6 11.1 61 -17.7 0.2
15:05 1023 30.21 852 25.16 -11.5 11.4 60 -17.8 -0.1
15:10 1023 30.21 852 25.16 -11.9 10.7 62 -17.8 -0
15:15 1023 30.21 852 25.16 -12.2 10 62 -18.1 -0.5
15:20 1023 30.21 852 25.16 -12 10.5 62 -17.8 -0.1
15:25 1023 30.21 852 25.16 -11.8 10.7 61 -17.9 -0.2
15:30 1023 30.21 852 25.16 -11.5 11.2 60 -17.8 0
15:35 1023 30.21 852 25.16 -11.5 11.3 60 -17.9 -0.2
15:40 1023 30.21 852 25.16 -11.7 11 61 -17.8 -0.1
15:45 1023 30.21 852 25.16 -12.1 10.3 63 -17.8 -0
15:50 1023 30.21 852 25.16 -12.5 9.5 64 -18 -0.5
15:55 1023 30.21 852 25.16 -12.4 9.8 62 -18.2 -0.8
16:00 1023 30.21 852 25.16 -12.1 10.1 61 -18.2 -0.7
16:05 1023 30.21 852 25.16 -12.6 9.4 63 -18.2 -0.8
16:10 1023 30.21 852 25.16 -12.7 9.2 65 -18 -0.4
16:15 1023 30.21 852 25.16 -13 8.6 66 -18 -0.4
16:20 1023 30.21 852 25.16 -13.2 8.3 67 -18 -0.4
16:25 1023 30.21 852 25.16 -13.8 7.1 69 -18.3 -0.9
16:30 1023 30.21 852 25.16 -14.3 6.3 70 -18.6 -1.4
16:35 1023 30.21 852 25.16 -14.7 5.6 72 -18.7 -1.6
16:40 1023 30.21 852 25.16 -15.2 4.7 74 -18.8 -1.8
16:45 1023 30.21 852 25.16 -15.6 3.9 76 -18.9 -1.9
16:50 1023 30.21 852 25.16 -15.8 3.5 77 -18.9 -2
16:55 1023 30.21 852 25.16 -16.1 3.1 78 -19 -2.2
17:00 1023 30.21 852 25.16 -16.1 3.1 80 -18.8 -1.9
17:05 1023 30.21 852 25.16 -16 3.3 80 -18.7 -1.7
17:10 1023 30.21 852 25.16 -15.9 3.4 80 -18.7 -1.6
17:15 1023 30.21 853 25.19 -15.9 3.4 80 -18.7 -1.6
17:20 1023 30.21 853 25.19 -15.9 3.3 78 -18.9 -2
17:25 1023 30.21 853 25.19 -16 3.2 79 -18.9 -2
17:30 1023 30.21 853 25.19 -16 3.3 77 -19.1 -2.4
17:35 1023 30.21 853 25.19 -16.1 3.1 78 -19.1 -2.3
17:40 1024 30.24 853 25.19 -15.8 3.6 74 -19.3 -2.8
17:45 1024 30.24 853 25.19 -16.1 3 75 -19.6 -3.3
17:50 1024 30.24 853 25.19 -16.6 2.2 77 -19.7 -3.5
17:55 1024 30.24 853 25.19 -16.7 2 76 -19.9 -3.8
18:00 1024 30.24 853 25.19 -16.8 1.7 79 -19.6 -3.3
18:05 1024 30.24 853 25.19 -16.6 2.2 77 -19.7 -3.5
18:10 1024 30.24 853 25.19 -16.6 2.2 76 -19.8 -3.6
18:15 1024 30.24 853 25.19 -16.6 2.1 75 -20 -4
18:20 1024 30.24 853 25.19 -16.8 1.8 75 -20.2 -4.4
18:25 1024 30.24 853 25.19 -17.1 1.2 74 -20.7 -5.3
18:30 1024 30.24 853 25.19 -17.7 0.1 72 -21.5 -6.8
18:35 1024 30.24 853 25.19 -18.4 -1.1 79 -21.2 -6.2
18:40 1024 30.24 853 25.19 -18 -0.5 83 -20.3 -4.6
18:45 1024 30.24 853 25.19 -17.7 0.1 80 -20.4 -4.8
18:50 1024 30.24 853 25.19 -18 -0.4 86 -19.8 -3.7
18:55 1024 30.24 853 25.19 -17.7 0.2 81 -20.2 -4.4
19:00 1024 30.24 853 25.19 -17.6 0.3 81 -20.2 -4.3
19:05 1024 30.24 853 25.19 -17.5 0.6 80 -20.1 -4.3
19:10 1023 30.21 853 25.19 -17.6 0.4 78 -20.5 -5
19:15 1023 30.21 853 25.19 -17.9 -0.2 81 -20.3 -4.6
19:20 1023 30.21 853 25.19 -17.9 -0.3 79 -20.8 -5.4
19:25 1023 30.21 853 25.19 -18.6 -1.4 81 -21.1 -5.9
19:30 1023 30.21 853 25.19 -18.1 -0.6 80 -20.8 -5.4
19:35 1023 30.21 853 25.19 -17.8 -0.1 79 -20.6 -5.1
19:40 1023 30.21 853 25.19 -17.5 0.5 82 -19.9 -3.8
19:45 1023 30.21 852 25.16 -16.9 1.5 79 -19.7 -3.5
19:50 1023 30.21 853 25.19 -17.1 1.3 78 -20 -4
19:55 1023 30.21 852 25.16 -16.8 1.8 77 -20 -4
20:00 1023 30.21 852 25.16 -16.9 1.5 77 -20.1 -4.2
20:05 1023 30.21 852 25.16 -17.1 1.2 77 -20.2 -4.4
20:10 1023 30.21 852 25.16 -17.3 0.8 78 -20.3 -4.6
20:15 1023 30.21 852 25.16 -17.3 0.8 74 -21 -5.7
20:20 1023 30.21 852 25.16 -17.9 -0.1 78 -20.8 -5.4
20:25 1023 30.21 852 25.16 -17.3 0.8 77 -20.5 -5
20:30 1023 30.21 852 25.16 -17.3 1 77 -20.4 -4.7
20:35 1023 30.21 852 25.16 -17.2 1.1 76 -20.5 -5
20:40 1023 30.21 852 25.16 -17.4 0.8 80 -20 -4
20:45 1023 30.21 852 25.16 -16.9 1.6 78 -19.9 -3.8
20:50 1023 30.21 852 25.16 -16.8 1.8 73 -20.6 -5.2
20:55 1023 30.21 852 25.16 -17.6 0.4 78 -20.6 -5.1
21:00 1023 30.21 852 25.16 -17.9 -0.2 74 -21.5 -6.7
21:05 1023 30.21 852 25.16 -18.2 -0.8 77 -21.4 -6.5
21:10 1023 30.21 852 25.16 -18.2 -0.8 78 -21.2 -6.2
21:15 1023 30.21 852 25.16 -18.1 -0.5 78 -21.1 -5.9
21:20 1023 30.21 852 25.16 -17.9 -0.2 78 -20.8 -5.4
21:25 1023 30.21 853 25.19 -17.8 -0 76 -21.1 -5.9
21:30 1023 30.21 853 25.19 -18.1 -0.6 76 -21.3 -6.4
21:35 1023 30.21 853 25.19 -18.1 -0.6 74 -21.6 -6.9
21:40 1024 30.24 853 25.19 -18.2 -0.7 77 -21.3 -6.4
21:45 1024 30.24 853 25.19 -17.9 -0.1 77 -21 -5.7
21:50 1023 30.21 853 25.19 -17.8 -0.1 79 -20.6 -5.1
21:55 1023 30.21 853 25.19 -17.9 -0.1 73 -21.6 -6.9
22:00 1024 30.24 853 25.19 -18 -0.4 72 -21.9 -7.4
22:05 1024 30.24 853 25.19 -18.7 -1.6 73 -22.3 -8.2
22:10 1024 30.24 853 25.19 -19.2 -2.6 75 -22.7 -8.8
22:15 1024 30.24 853 25.19 -19.2 -2.6 76 -22.5 -8.5
22:20 1024 30.24 853 25.19 -19.1 -2.4 78 -22.1 -7.7
22:25 1024 30.24 853 25.19 -18.7 -1.6 76 -21.9 -7.4
22:30 1024 30.24 853 25.19 -18.2 -0.8 77 -21.3 -6.4
22:35 1024 30.24 853 25.19 -18.2 -0.7 74 -21.8 -7.3
22:40 1024 30.24 853 25.19 -18.7 -1.6 70 -22.9 -9.2
22:45 1024 30.24 853 25.19 -19.8 -3.6 76 -22.9 -9.3
22:50 1024 30.24 853 25.19 -19.5 -3 79 -22.2 -8
22:55 1024 30.24 853 25.19 -18.7 -1.7 78 -21.7 -7.1
23:00 1024 30.24 853 25.19 -18.3 -0.9 76 -21.6 -6.8
23:05 1024 30.24 853 25.19 -18.2 -0.7 75 -21.6 -6.9
23:10 1024 30.24 853 25.19 -18.1 -0.7 75 -21.6 -6.8
23:15 1024 30.24 853 25.19 -17.8 -0 74 -21.4 -6.5
23:20 1024 30.24 853 25.19 -17.4 0.6 73 -21.2 -6.2
23:25 1024 30.24 853 25.19 -17.5 0.6 76 -20.8 -5.4
23:30 1024 30.24 853 25.19 -17.3 0.9 72 -21.3 -6.3
23:35 1024 30.24 853 25.19 -17.4 0.6 72 -21.4 -6.5
23:40 1024 30.24 853 25.19 -17.6 0.3 74 -21.1 -6.1
23:45 1024 30.24 854 25.22 -17.7 0.2 71 -21.7 -7.1
23:50 1024 30.24 854 25.22 -18.1 -0.6 73 -21.8 -7.2
23:55 1024 30.24 854 25.22 -17.9 -0.2 70 -22.1 -7.7
24:00 1024 30.24 854 25.22 -18 -0.3 70 -22.1 -7.8